• Join FlightAware (Why Join?)
  • Login
  • US Flag 
11:11PM EDT


 

Airport Tracker/Info


-or-


 

Live Flight TrackerFlight Track Log ✈ SRY658 ✈ 07-May-2012 ✈ KMER - KCDC

Flight Track Log - Related Links

Times and Time Zones

All times are in EDT time to prevent confusion due to time zone crossing. See the SRY658 flight status page for this flight to view local times or setup timezone preferences in your user account.

Time Position Orientation Groundspeed Altitude Reporting Facility
EDT Latitude Longitude Course Direction KTS MPH feet Rate Location/Type
02:30PM 37.4000 -120.5833 332° Northwest 159 183 1,300  Level Northern Cal TRACON
02:31PM 37.4500 -120.6167 72° East 193 222 3,000 1,680 Climbing Northern Cal TRACON
02:32PM 37.4667 -120.5500 71° East 188 216 4,900 1,680 Climbing Northern Cal TRACON
02:34PM 37.5050 -120.4056 74° East 196 226 8,400 1,560 Climbing Oakland Center
02:35PM 37.5192 -120.3425 77° East 196 226 10,000 1,440 Climbing Oakland Center
02:36PM 37.5314 -120.2769 72° East 191 220 11,300 1,260 Climbing Oakland Center
02:37PM 37.5497 -120.2061 72° East 196 226 12,600 1,200 Climbing Oakland Center
02:38PM 37.5681 -120.1350 71° East 201 231 13,800 1,200 Climbing Oakland Center
02:39PM 37.5883 -120.0614 79° East 211 243 15,000 1,200 Climbing Oakland Center
02:40PM 37.5981 -119.9983 76° East 205 236 16,300 1,200 Climbing Oakland Center
02:41PM 37.6122 -119.9275 72° East 198 228 17,400 1,020 Climbing Oakland Center
02:42PM 37.6322 -119.8511 68° East 209 241 18,400 1,020 Climbing Oakland Center
02:43PM 37.6586 -119.7694 70° East 229 264 19,500 1,020 Climbing Oakland Center
02:44PM 37.6786 -119.6981 75° East 228 262 20,500 960 Climbing Oakland Center
02:45PM 37.6925 -119.6322 78° East 217 250 21,500 1,200 Climbing Oakland Center
02:46PM 37.7042 -119.5611 73° East 203 234 23,000 600 Climbing Oakland Center
02:47PM 37.7222 -119.4847 77° East 203 234 22,700  Descending Oakland Center
02:48PM 37.7358 -119.4108 71° East 209 241 23,100 180 Climbing Oakland Center
02:49PM 37.7597 -119.3236 76° East 230 265 23,100  Level Oakland Center
02:50PM 37.7769 -119.2339 73° East 250 288 23,100  Level Oakland Center
02:51PM 37.7986 -119.1442 74° East 256 295 23,100  Level Oakland Center
02:52PM 37.8161 -119.0647 70° East 249 287 23,100  Level Oakland Center
02:53PM 37.8397 -118.9828 75° East 244 281 23,100  Level Oakland Center
02:54PM 37.8572 -118.9006 74° East 244 281 23,100  Level Oakland Center
02:55PM 37.8725 -118.8317 75° East 238 274 23,100  Level Oakland Center
02:56PM 37.8900 -118.7497 74° East 233 268 23,100  Level Oakland Center
02:57PM 37.9092 -118.6675 73° East 233 268 23,100  Level Oakland Center
02:58PM 37.9283 -118.5881 76° East 238 274 23,100  Level Oakland Center
02:59PM 37.9456 -118.5031 75° East 238 274 23,100  Level Oakland Center
03:00PM 37.9625 -118.4236 74° East 238 274 23,100  Level Oakland Center
03:01PM 37.9817 -118.3411 75° East 238 274 23,100  Level Oakland Center
03:02PM 37.9986 -118.2614 76° East 238 274 23,100  Level Oakland Center
03:03PM 38.0153 -118.1764 76° East 243 280 23,100  Level Oakland Center
03:04PM 38.0319 -118.0914 74° East 243 280 23,100  Level Oakland Center
03:05PM 38.0508 -118.0064 74° East 243 280 23,100  Level Oakland Center
03:06PM 38.0694 -117.9211 76° East 243 280 23,100  Level Oakland Center
03:08PM 38.1111 -117.7139 74° East 251 289 23,100  Level Salt Lake Center
03:09PM 38.1294 -117.6303 75° East 248 285 23,100  Level Salt Lake Center
03:11PM 38.1469 -117.5456 75° East 248 285 23,100  Level Salt Lake Center
03:12PM 38.1653 -117.4592 75° East 251 289 23,100  Level Salt Lake Center
03:13PM 38.1831 -117.3736 75° East 250 288 23,100  Level Salt Lake Center
03:14PM 38.2042 -117.2733 75° East 244 281 23,100  Level Salt Lake Center
03:15PM 38.2217 -117.1886 75° East 242 278 23,100  Level Salt Lake Center
03:16PM 38.2389 -117.1047 75° East 241 277 23,100  Level Salt Lake Center
03:17PM 38.2553 -117.0242 75° East 236 272 23,100  Level Salt Lake Center
03:18PM 38.2717 -116.9433 75° East 235 270 23,100  Level Salt Lake Center
03:19PM 38.2886 -116.8617 76° East 238 274 23,100  Level Salt Lake Center
03:20PM 38.3050 -116.7800 76° East 237 273 23,100  Level Salt Lake Center
03:21PM 38.3211 -116.6975 75° East 240 276 23,100  Level Salt Lake Center
03:22PM 38.3411 -116.6000 76° East 237 273 23,100  Level Salt Lake Center
03:23PM 38.3575 -116.5186 76° East 237 273 23,100  Level Salt Lake Center
03:24PM 38.3739 -116.4364 75° East 238 274 23,100  Level Salt Lake Center
03:25PM 38.3903 -116.3561 76° East 236 272 23,100  Level Salt Lake Center
03:26PM 38.4061 -116.2756 76° East 235 270 23,100  Level Salt Lake Center
03:27PM 38.4214 -116.1947 96° East 235 270 23,100  Level Salt Lake Center
03:28PM 38.4114 -116.0825 98° East 263 303 23,100  Level Salt Lake Center
03:29PM 38.4017 -115.9906 96° East 266 306 23,100  Level Salt Lake Center
03:30PM 38.3939 -115.8981 96° East 265 305 23,100  Level Salt Lake Center
03:31PM 38.3861 -115.8056 96° East 262 302 23,100  Level Salt Lake Center
03:32PM 38.3781 -115.7103 97° East 267 307 23,100  Level Salt Lake Center
03:33PM 38.3683 -115.6136 97° East 273 314 23,100  Level Salt Lake Center
03:34PM 38.3583 -115.5025 96° East 266 306 23,100  Level Salt Lake Center
03:35PM 38.3503 -115.4094 97° East 265 305 23,100  Level Salt Lake Center
03:36PM 38.3422 -115.3267 96° East 264 304 23,100  Level Salt Lake Center
03:37PM 38.3342 -115.2347 97° East 261 300 23,100  Level Salt Lake Center
03:38PM 38.3236 -115.1219 97° East 262 302 23,100 -660 Level Salt Lake Center
03:42PM 38.2944 -114.8306 97° East 282 325 20,600 -1,020 Descending Salt Lake Center
03:43PM 38.2853 -114.7300 97° East 283 326 18,900 -1,500 Descending Salt Lake Center
03:44PM 38.2753 -114.6325 98° East 278 320 17,600 -960 Descending Salt Lake Center
03:47PM 38.2458 -114.3697 114° Southeast 243 280 15,100 -300 Descending Salt Lake Center
03:52PM 38.0792 -113.8972 113° Southeast 266 306 15,100  Level Salt Lake Center
03:53PM 38.0497 -113.8083 114° Southeast 267 307 15,100  Level Salt Lake Center
03:54PM 38.0189 -113.7214 115° Southeast 267 307 15,100  Level Salt Lake Center
03:55PM 37.9881 -113.6358 115° Southeast 266 306 15,100 -480 Level Salt Lake Center
03:56PM 37.9572 -113.5511 114° Southeast 264 304 14,200 -1,200 Descending Salt Lake Center
03:57PM 37.9286 -113.4706 118° Southeast 257 296 12,700 -1,560 Descending Salt Lake Center
03:58PM 37.8964 -113.3947 128° Southeast 249 287 11,000 -1,500 Descending Salt Lake Center
03:59PM 37.8536 -113.3264 127° Southeast 246 283 9,600 -1,320 Descending Salt Lake Center
04:00PM 37.8136 -113.2583 127° Southeast 240 276 8,300 -1,260 Descending Salt Lake Center